Time;durP1;ratioP1;P1;durP2;ratioP2;P2;SDS_P1;SDS_P2;PMS_P1;PMS_P2;Temp;Humidity;BMP_temperature;BMP_pressure;BME280_temperature;BME280_humidity;BME280_pressure;Samples;Min_cycle;Max_cycle;Signal;HPM_P1;HPM_P2
2023/03/13 00:01:36;;;;;;;1.27;0.98;;;;;;;;;;5067658;28;20932;-72
2023/03/13 00:04:01;;;;;;;0.10;0.10;;;;;;;;;;5069206;28;20055;-72
2023/03/13 00:06:31;;;;;;;0.10;0.10;;;;;;;;;;5068438;28;20044;-72
2023/03/13 00:08:56;;;;;;;0.30;0.30;;;;;;;;;;5069017;28;20028;-72
2023/03/13 00:11:21;;;;;;;0.10;0.10;;;;;;;;;;5068948;28;20028;-71
2023/03/13 00:13:47;;;;;;;0.17;0.17;;;;;;;;;;5067735;28;20494;-72
2023/03/13 00:16:13;;;;;;;0.10;0.10;;;;;;;;;;5068292;28;20059;-72
2023/03/13 00:18:43;;;;;;;0.63;0.63;;;;;;;;;;5088587;28;20530;-71
2023/03/13 00:21:09;;;;;;;0.10;0.10;;;;;;;;;;5075190;28;20040;-72
2023/03/13 00:23:35;;;;;;;0.10;0.10;;;;;;;;;;5091848;28;20024;-73
2023/03/13 00:26:02;;;;;;;0.10;0.10;;;;;;;;;;5073205;28;20052;-73
2023/03/13 00:28:28;;;;;;;0.10;0.10;;;;;;;;;;5092700;28;20020;-73
2023/03/13 00:31:14;;;;;;;0.50;0.50;;;;;;;;;;5091671;28;20036;-72
2023/03/13 00:33:40;;;;;;;8.30;2.92;;;;;;;;;;5091650;28;20067;-72
2023/03/13 00:36:10;;;;;;;0.10;0.10;;;;;;;;;;5091875;28;20024;-72
2023/03/13 00:38:35;;;;;;;;;;;;;;;;;;5093161;28;20032;-72
2023/03/13 00:41:05;;;;;;;0.10;0.10;;;;;;;;;;5091700;28;19908;-73
2023/03/13 00:43:32;;;;;;;0.10;0.10;;;;;;;;;;5085609;28;20020;-72
2023/03/13 00:45:59;;;;;;;0.10;0.10;;;;;;;;;;5057182;28;20125;-71
2023/03/13 00:48:25;;;;;;;0.10;0.10;;;;;;;;;;5070821;28;20452;-71
2023/03/13 00:50:50;;;;;;;0.10;0.10;;;;;;;;;;5074719;28;20036;-71
2023/03/13 00:53:16;;;;;;;0.20;0.20;;;;;;;;;;5074203;28;20021;-72
2023/03/13 00:55:55;;;;;;;0.10;0.10;;;;;;;;;;5057205;28;20067;-72
2023/03/13 00:58:20;;;;;;;0.10;0.10;;;;;;;;;;5075178;28;20036;-72
2023/03/13 01:00:46;;;;;;;0.10;0.10;;;;;;;;;;5095157;28;20024;-71
2023/03/13 01:03:11;;;;;;;0.20;0.20;;;;;;;;;;5096235;28;20060;-70
2023/03/13 01:05:37;;;;;;;0.10;0.10;;;;;;;;;;5095845;28;20111;-71
2023/03/13 01:08:02;;;;;;;0.10;0.10;;;;;;;;;;5094760;28;20032;-71
2023/03/13 01:10:28;;;;;;;0.10;0.10;;;;;;;;;;5094930;28;20036;-70
2023/03/13 01:12:53;;;;;;;0.10;0.10;;;;;;;;;;5094713;28;20024;-70
2023/03/13 01:15:18;;;;;;;0.10;0.10;;;;;;;;;;5093951;28;20031;-70
2023/03/13 01:17:44;;;;;;;0.10;0.10;;;;;;;;;;5094268;28;20392;-70
2023/03/13 01:20:11;;;;;;;0.10;0.10;;;;;;;;;;5076833;28;20490;-72
2023/03/13 01:22:37;;;;;;;0.10;0.10;;;;;;;;;;5076894;28;20025;-71
2023/03/13 01:25:02;;;;;;;0.10;0.10;;;;;;;;;;5092818;28;20061;-72
2023/03/13 01:27:28;;;;;;;0.20;0.20;;;;;;;;;;5092825;28;20028;-71
2023/03/13 01:29:54;;;;;;;0.10;0.10;;;;;;;;;;5095568;28;20028;-71
2023/03/13 01:32:19;;;;;;;0.10;0.10;;;;;;;;;;5094626;28;20084;-70
2023/03/13 01:34:45;;;;;;;0.10;0.10;;;;;;;;;;5094361;28;20032;-70
2023/03/13 01:37:10;;;;;;;0.77;0.77;;;;;;;;;;5095023;28;20101;-69
2023/03/13 01:39:36;;;;;;;0.85;0.85;;;;;;;;;;5093799;28;20023;-71
2023/03/13 01:42:02;;;;;;;0.15;0.15;;;;;;;;;;5094211;28;20864;-71
2023/03/13 01:44:28;;;;;;;0.20;0.20;;;;;;;;;;5094437;28;20035;-71
2023/03/13 01:46:54;;;;;;;0.20;0.20;;;;;;;;;;5077167;28;20072;-71
2023/03/13 01:49:22;;;;;;;0.20;0.20;;;;;;;;;;5095318;28;20140;-68
2023/03/13 01:52:10;;;;;;;0.75;0.75;;;;;;;;;;5094535;28;20036;-69
2023/03/13 01:54:48;;;;;;;0.20;0.20;;;;;;;;;;5093924;28;20035;-70
2023/03/13 01:57:29;;;;;;;1.27;1.27;;;;;;;;;;5093889;28;20028;-70
2023/03/13 01:59:59;;;;;;;0.10;0.10;;;;;;;;;;5094044;28;20032;-70
2023/03/13 02:02:25;;;;;;;0.10;0.10;;;;;;;;;;5093605;28;20106;-69
2023/03/13 02:04:54;;;;;;;0.10;0.10;;;;;;;;;;5074412;28;20567;-70
2023/03/13 02:07:22;;;;;;;0.10;0.10;;;;;;;;;;5094853;28;20505;-70
2023/03/13 02:09:50;;;;;;;0.10;0.10;;;;;;;;;;5093511;28;20107;-69
2023/03/13 02:12:30;;;;;;;0.10;0.10;;;;;;;;;;5076966;28;20131;-69
2023/03/13 02:14:55;;;;;;;;;;;;;;;;;;5095034;28;20027;-69
2023/03/13 02:17:21;;;;;;;0.20;0.20;;;;;;;;;;5092289;28;19908;-70
2023/03/13 02:19:48;;;;;;;0.10;0.10;;;;;;;;;;5076518;28;20020;-70
2023/03/13 02:22:25;;;;;;;0.28;0.28;;;;;;;;;;5076281;28;20047;-70
2023/03/13 02:25:10;;;;;;;1.42;0.93;;;;;;;;;;5090884;28;20044;-70
2023/03/13 02:27:35;;;;;;;3.60;2.92;;;;;;;;;;5090788;28;20090;-73
2023/03/13 02:30:03;;;;;;;0.10;0.10;;;;;;;;;;5090798;28;20507;-72
2023/03/13 02:32:29;;;;;;;0.10;0.10;;;;;;;;;;5090391;28;20024;-72
2023/03/13 02:34:57;;;;;;;0.10;0.10;;;;;;;;;;5091552;28;20028;-72
2023/03/13 02:37:24;;;;;;;0.10;0.10;;;;;;;;;;5090849;28;20383;-71
2023/03/13 02:39:50;;;;;;;0.10;0.10;;;;;;;;;;5091693;28;20059;-71
2023/03/13 02:42:18;;;;;;;0.10;0.10;;;;;;;;;;5092731;28;20383;-71
2023/03/13 02:44:45;;;;;;;0.10;0.10;;;;;;;;;;5076132;28;20051;-73
2023/03/13 02:47:11;;;;;;;1.60;1.27;;;;;;;;;;5092668;28;20036;-71
2023/03/13 02:49:37;;;;;;;0.10;0.10;;;;;;;;;;5092696;28;20441;-72
2023/03/13 02:52:11;;;;;;;0.15;0.15;;;;;;;;;;5091947;28;20028;-71
2023/03/13 02:54:40;;;;;;;0.55;0.55;;;;;;;;;;5076228;28;20066;-70
2023/03/13 02:57:06;;;;;;;0.20;0.20;;;;;;;;;;5092379;28;20063;-71
2023/03/13 02:59:33;;;;;;;0.50;0.50;;;;;;;;;;5092756;28;20065;-72
2023/03/13 03:01:59;;;;;;;0.10;0.10;;;;;;;;;;5075819;28;20110;-71
2023/03/13 03:04:25;;;;;;;0.13;0.13;;;;;;;;;;5092789;28;20107;-71
2023/03/13 03:06:54;;;;;;;0.10;0.10;;;;;;;;;;5091461;28;20044;-71
2023/03/13 03:09:20;;;;;;;0.10;0.10;;;;;;;;;;5092389;28;20031;-72
2023/03/13 03:11:45;;;;;;;0.10;0.10;;;;;;;;;;5091583;28;20108;-72
2023/03/13 03:14:13;;;;;;;1.13;0.52;;;;;;;;;;5092571;28;20031;-72
2023/03/13 03:16:42;;;;;;;0.20;0.20;;;;;;;;;;5091825;28;20028;-72
2023/03/13 03:19:08;;;;;;;0.30;0.30;;;;;;;;;;5075338;28;20805;-72
2023/03/13 03:21:34;;;;;;;0.10;0.10;;;;;;;;;;5093587;28;20372;-71
2023/03/13 03:23:59;;;;;;;1.02;1.02;;;;;;;;;;5091127;28;20498;-73
2023/03/13 03:26:25;;;;;;;0.10;0.10;;;;;;;;;;5093093;28;20036;-70
2023/03/13 03:28:51;;;;;;;0.10;0.10;;;;;;;;;;5092900;28;20031;-72
2023/03/13 03:31:17;;;;;;;0.10;0.10;;;;;;;;;;5091304;28;20379;-70
2023/03/13 03:33:43;;;;;;;0.20;0.20;;;;;;;;;;5091107;28;20065;-71
2023/03/13 03:36:12;;;;;;;0.10;0.10;;;;;;;;;;5092046;28;20494;-71
2023/03/13 03:38:38;;;;;;;0.28;0.28;;;;;;;;;;5074357;28;20062;-70
2023/03/13 03:41:06;;;;;;;0.10;0.10;;;;;;;;;;5091846;28;20155;-70
2023/03/13 03:43:32;;;;;;;0.30;0.30;;;;;;;;;;5091951;28;20032;-70
2023/03/13 03:45:59;;;;;;;0.10;0.10;;;;;;;;;;5092040;28;20059;-74
2023/03/13 03:48:25;;;;;;;0.10;0.10;;;;;;;;;;5091375;28;20054;-74
2023/03/13 03:50:51;;;;;;;0.10;0.10;;;;;;;;;;5090869;28;20112;-74
2023/03/13 03:53:16;;;;;;;0.10;0.10;;;;;;;;;;5091847;28;20051;-74
2023/03/13 03:55:43;;;;;;;0.10;0.10;;;;;;;;;;5091652;28;20028;-71
2023/03/13 03:58:08;;;;;;;0.20;0.20;;;;;;;;;;5075254;28;20024;-71
2023/03/13 04:01:03;;;;;;;0.10;0.10;;;;;;;;;;5073704;28;20472;-72
2023/03/13 04:03:30;;;;;;;0.10;0.10;;;;;;;;;;5078939;28;20115;-71
2023/03/13 04:05:56;;;;;;;0.10;0.10;;;;;;;;;;5087440;28;20551;-74
2023/03/13 04:08:23;;;;;;;0.10;0.10;;;;;;;;;;5071093;28;20372;-71
2023/03/13 04:10:48;;;;;;;0.20;0.20;;;;;;;;;;5071129;28;20036;-70
2023/03/13 04:13:15;;;;;;;0.20;0.20;;;;;;;;;;5087926;28;20483;-71
2023/03/13 04:15:41;;;;;;;0.20;0.20;;;;;;;;;;5086987;28;20484;-72
2023/03/13 04:18:09;;;;;;;0.10;0.10;;;;;;;;;;5070466;28;20036;-71
2023/03/13 04:20:35;;;;;;;0.17;0.17;;;;;;;;;;5087634;28;20373;-71
2023/03/13 04:23:01;;;;;;;0.10;0.10;;;;;;;;;;5070918;28;20070;-71
2023/03/13 04:25:26;;;;;;;0.10;0.10;;;;;;;;;;5090142;28;20094;-71
2023/03/13 04:27:55;;;;;;;0.10;0.10;;;;;;;;;;5091023;28;20499;-71
2023/03/13 04:30:24;;;;;;;0.20;0.20;;;;;;;;;;5091778;28;20028;-72
2023/03/13 04:33:09;;;;;;;0.20;0.20;;;;;;;;;;5077119;28;20105;-72
2023/03/13 04:35:55;;;;;;;0.15;0.15;;;;;;;;;;5091071;28;20032;-71
2023/03/13 04:38:56;;;;;;;0.17;0.17;;;;;;;;;;5090482;28;20048;-72
2023/03/13 04:41:48;;;;;;;0.20;0.20;;;;;;;;;;5091106;28;20071;-71
2023/03/13 04:44:22;;;;;;;0.10;0.10;;;;;;;;;;5074546;28;20025;-73
2023/03/13 04:47:00;;;;;;;0.10;0.10;;;;;;;;;;5090383;28;20070;-73
2023/03/13 04:49:49;;;;;;;0.10;0.10;;;;;;;;;;5093816;28;20040;-73
2023/03/13 04:52:37;;;;;;;0.10;0.10;;;;;;;;;;5094697;28;20028;-71
2023/03/13 04:55:12;;;;;;;0.10;0.10;;;;;;;;;;5089925;28;20077;-73
2023/03/13 04:57:37;;;;;;;0.10;0.10;;;;;;;;;;5092125;28;20032;-71
2023/03/13 05:00:15;;;;;;;0.10;0.10;;;;;;;;;;5089439;28;20035;-71
2023/03/13 05:02:59;;;;;;;0.13;0.13;;;;;;;;;;5070140;28;20126;-72
2023/03/13 05:05:34;;;;;;;0.10;0.10;;;;;;;;;;5069885;28;20033;-74
2023/03/13 05:08:38;;;;;;;0.30;0.30;;;;;;;;;;5110017;28;20130;-73
2023/03/13 05:11:22;;;;;;;0.22;0.22;;;;;;;;;;5100155;28;20086;-73
2023/03/13 05:14:00;;;;;;;0.10;0.10;;;;;;;;;;5077546;28;20039;-73
2023/03/13 05:16:50;;;;;;;0.10;0.10;;;;;;;;;;5069590;28;20040;-73
2023/03/13 05:19:34;;;;;;;0.30;0.30;;;;;;;;;;5070537;28;20089;-73
2023/03/13 05:22:20;;;;;;;0.10;0.10;;;;;;;;;;5071317;28;20388;-73
2023/03/13 05:24:56;;;;;;;0.15;0.15;;;;;;;;;;5069800;28;20045;-72
2023/03/13 05:27:40;;;;;;;0.20;0.20;;;;;;;;;;5069758;28;20043;-74
2023/03/13 05:30:20;;;;;;;0.20;0.20;;;;;;;;;;5069530;28;20037;-73
2023/03/13 05:33:02;;;;;;;0.20;0.20;;;;;;;;;;5069168;28;20028;-72
2023/03/13 05:35:50;;;;;;;0.10;0.10;;;;;;;;;;5070256;28;20036;-72
2023/03/13 05:38:30;;;;;;;0.20;0.20;;;;;;;;;;5069842;28;20442;-71
2023/03/13 05:41:19;;;;;;;0.20;0.20;;;;;;;;;;5069298;28;20056;-72
2023/03/13 05:44:08;;;;;;;0.10;0.10;;;;;;;;;;5070301;28;20036;-72
2023/03/13 05:46:51;;;;;;;0.10;0.10;;;;;;;;;;5070735;28;20123;-74
2023/03/13 05:49:28;;;;;;;0.22;0.22;;;;;;;;;;5081034;28;20036;-73
2023/03/13 05:52:17;;;;;;;0.20;0.20;;;;;;;;;;5089983;28;20483;-73
2023/03/13 05:55:05;;;;;;;0.15;0.15;;;;;;;;;;5090594;28;20044;-74
2023/03/13 05:57:51;;;;;;;0.10;0.10;;;;;;;;;;5086286;28;20043;-74
2023/03/13 06:00:23;;;;;;;0.10;0.10;;;;;;;;;;5087774;28;20219;-71
2023/03/13 06:03:05;;;;;;;0.10;0.10;;;;;;;;;;5087622;28;20491;-74
2023/03/13 06:05:38;;;;;;;0.10;0.10;;;;;;;;;;5089262;28;20392;-74
2023/03/13 06:08:14;;;;;;;0.50;0.50;;;;;;;;;;5087081;28;20115;-72
2023/03/13 06:10:39;;;;;;;1.48;1.38;;;;;;;;;;5085689;28;20172;-71
2023/03/13 06:13:05;;;;;;;0.20;0.20;;;;;;;;;;5081552;28;20020;-70
2023/03/13 06:15:33;;;;;;;0.10;0.10;;;;;;;;;;5087063;28;20055;-70
2023/03/13 06:18:09;;;;;;;0.20;0.20;;;;;;;;;;5067844;28;20544;-72
2023/03/13 06:20:34;;;;;;;11.30;1.88;;;;;;;;;;5077434;28;20028;-72
2023/03/13 06:23:00;;;;;;;0.13;0.13;;;;;;;;;;5088101;28;20107;-72
2023/03/13 06:25:25;;;;;;;0.73;0.68;;;;;;;;;;5085438;28;20089;-70
2023/03/13 06:27:50;;;;;;;0.20;0.20;;;;;;;;;;5087543;28;20024;-73
2023/03/13 06:30:16;;;;;;;0.17;0.17;;;;;;;;;;5087823;28;20112;-71
2023/03/13 06:32:41;;;;;;;0.10;0.10;;;;;;;;;;5084511;28;20027;-74
2023/03/13 06:35:07;;;;;;;0.10;0.10;;;;;;;;;;5076569;28;20020;-70
2023/03/13 06:37:32;;;;;;;0.10;0.10;;;;;;;;;;5068550;28;20025;-70
2023/03/13 06:39:58;;;;;;;3.67;3.47;;;;;;;;;;5073303;28;20028;-71
2023/03/13 06:42:23;;;;;;;0.10;0.10;;;;;;;;;;5074903;28;20020;-69
2023/03/13 06:44:49;;;;;;;0.10;0.10;;;;;;;;;;5068316;28;20040;-71
2023/03/13 06:47:14;;;;;;;0.10;0.10;;;;;;;;;;5068617;28;20055;-72
2023/03/13 06:49:40;;;;;;;0.10;0.10;;;;;;;;;;5069769;28;20028;-71
2023/03/13 06:52:05;;;;;;;0.10;0.10;;;;;;;;;;5070094;28;20036;-71
2023/03/13 06:54:30;;;;;;;0.10;0.10;;;;;;;;;;5069903;28;20502;-74
2023/03/13 06:56:56;;;;;;;0.22;0.22;;;;;;;;;;5070193;28;20036;-74
2023/03/13 06:59:21;;;;;;;0.10;0.10;;;;;;;;;;5069031;28;20099;-75
2023/03/13 07:01:47;;;;;;;0.45;0.45;;;;;;;;;;5075434;28;20077;-71
2023/03/13 07:04:12;;;;;;;0.10;0.10;;;;;;;;;;5089955;28;20020;-72
2023/03/13 07:06:38;;;;;;;0.30;0.30;;;;;;;;;;5082517;28;20063;-75
2023/03/13 07:09:04;;;;;;;6.93;2.20;;;;;;;;;;5076557;28;20070;-74
2023/03/13 07:11:29;;;;;;;2.55;1.45;;;;;;;;;;5075085;28;20033;-75
2023/03/13 07:13:55;;;;;;;0.10;0.10;;;;;;;;;;5069692;28;20021;-74
2023/03/13 07:16:21;;;;;;;0.10;0.10;;;;;;;;;;5069620;28;20425;-76
2023/03/13 07:18:47;;;;;;;4.72;3.28;;;;;;;;;;5051592;28;20089;-76
2023/03/13 07:21:12;;;;;;;0.10;0.10;;;;;;;;;;5080950;28;20098;-74
2023/03/13 07:23:38;;;;;;;1.20;0.90;;;;;;;;;;5081241;28;20028;-76
2023/03/13 07:26:05;;;;;;;0.47;0.47;;;;;;;;;;5069062;28;20047;-76
2023/03/13 07:28:31;;;;;;;0.10;0.10;;;;;;;;;;5067983;28;20074;-75
2023/03/13 07:31:04;;;;;;;0.20;0.20;;;;;;;;;;5067560;28;20040;-75
2023/03/13 07:33:29;;;;;;;0.10;0.10;;;;;;;;;;5067116;28;20082;-74
2023/03/13 07:35:54;;;;;;;0.20;0.20;;;;;;;;;;5069405;28;20109;-74
2023/03/13 07:38:20;;;;;;;0.90;0.90;;;;;;;;;;5069668;28;20032;-76
2023/03/13 07:40:53;;;;;;;0.28;0.28;;;;;;;;;;5068415;28;20055;-76
2023/03/13 07:43:18;;;;;;;0.10;0.10;;;;;;;;;;5067974;28;20029;-76
2023/03/13 07:45:50;;;;;;;0.28;0.28;;;;;;;;;;5069145;28;20040;-76
2023/03/13 07:48:15;;;;;;;1.85;1.75;;;;;;;;;;5069321;28;20131;-75
2023/03/13 07:50:41;;;;;;;0.17;0.17;;;;;;;;;;5069485;28;20159;-75
2023/03/13 07:53:07;;;;;;;0.38;0.38;;;;;;;;;;5068238;28;20107;-75
2023/03/13 07:55:33;;;;;;;0.10;0.10;;;;;;;;;;5068903;28;20039;-75
2023/03/13 07:57:58;;;;;;;0.10;0.10;;;;;;;;;;5070093;28;20012;-74
2023/03/13 08:00:23;;;;;;;0.10;0.10;;;;;;;;;;5072197;28;20045;-74
2023/03/13 08:02:49;;;;;;;0.82;0.82;;;;;;;;;;5073368;28;20071;-75
2023/03/13 08:05:15;;;;;;;0.65;0.65;;;;;;;;;;5072021;28;20399;-75
2023/03/13 08:07:42;;;;;;;0.20;0.20;;;;;;;;;;5073031;28;20028;-76
2023/03/13 08:10:09;;;;;;;0.17;0.17;;;;;;;;;;5072071;28;20070;-75
2023/03/13 08:12:34;;;;;;;0.20;0.20;;;;;;;;;;5073317;28;20024;-75
2023/03/13 08:14:59;;;;;;;0.10;0.10;;;;;;;;;;5072836;28;20036;-75
2023/03/13 08:17:27;;;;;;;0.20;0.20;;;;;;;;;;5072900;28;20035;-74
2023/03/13 08:19:53;;;;;;;0.73;0.73;;;;;;;;;;5072854;28;20078;-75
2023/03/13 08:22:18;;;;;;;0.20;0.20;;;;;;;;;;5072896;28;20032;-75
2023/03/13 08:24:43;;;;;;;4.20;2.28;;;;;;;;;;5072501;28;20076;-75
2023/03/13 08:27:09;;;;;;;0.50;0.50;;;;;;;;;;5085006;28;20433;-75
2023/03/13 08:29:34;;;;;;;0.20;0.20;;;;;;;;;;5091606;28;20032;-75
2023/03/13 08:32:00;;;;;;;0.20;0.20;;;;;;;;;;5080915;28;20383;-75
2023/03/13 08:34:25;;;;;;;1.13;1.13;;;;;;;;;;5081102;28;20460;-73
2023/03/13 08:36:51;;;;;;;0.20;0.20;;;;;;;;;;5077224;28;20107;-74
2023/03/13 08:39:18;;;;;;;0.40;0.40;;;;;;;;;;5072821;28;20028;-74
2023/03/13 08:41:43;;;;;;;1.65;1.55;;;;;;;;;;5088121;28;20024;-74
2023/03/13 08:44:10;;;;;;;0.20;0.20;;;;;;;;;;5082873;28;20039;-75
2023/03/13 08:46:36;;;;;;;0.63;0.52;;;;;;;;;;5054350;28;20051;-74
2023/03/13 08:49:02;;;;;;;0.20;0.20;;;;;;;;;;5072416;28;20333;-75
2023/03/13 08:51:28;;;;;;;0.20;0.20;;;;;;;;;;5073175;28;20433;-75
2023/03/13 08:53:54;;;;;;;0.20;0.20;;;;;;;;;;5086251;28;20170;-75
2023/03/13 08:56:22;;;;;;;0.20;0.20;;;;;;;;;;5089024;28;20283;-75
2023/03/13 08:58:51;;;;;;;0.90;0.40;;;;;;;;;;5086588;28;20027;-75
2023/03/13 09:01:17;;;;;;;0.32;0.22;;;;;;;;;;5071941;28;20549;-75
2023/03/13 09:03:42;;;;;;;0.25;0.25;;;;;;;;;;5084601;28;20054;-75
2023/03/13 09:06:08;;;;;;;0.40;0.40;;;;;;;;;;5090852;28;20036;-75
2023/03/13 09:08:34;;;;;;;0.30;0.30;;;;;;;;;;5091081;28;20475;-75
2023/03/13 09:11:01;;;;;;;0.25;0.25;;;;;;;;;;5073312;28;20031;-75
2023/03/13 09:13:28;;;;;;;0.60;0.60;;;;;;;;;;5084798;28;20028;-75
2023/03/13 09:15:54;;;;;;;0.20;0.20;;;;;;;;;;5090842;28;20107;-75
2023/03/13 09:18:20;;;;;;;0.40;0.40;;;;;;;;;;5089026;28;20028;-75
2023/03/13 09:20:45;;;;;;;0.28;0.28;;;;;;;;;;5073559;28;20482;-76
2023/03/13 09:23:11;;;;;;;0.20;0.20;;;;;;;;;;5090869;28;20468;-75
2023/03/13 09:25:39;;;;;;;1.05;1.05;;;;;;;;;;5091614;28;20491;-75
2023/03/13 09:28:04;;;;;;;0.20;0.20;;;;;;;;;;5088878;28;20038;-74
2023/03/13 09:30:30;;;;;;;0.30;0.30;;;;;;;;;;5091683;28;20032;-75
2023/03/13 09:32:55;;;;;;;0.20;0.20;;;;;;;;;;5090149;28;20028;-75
2023/03/13 09:35:20;;;;;;;0.35;0.35;;;;;;;;;;5081759;28;20016;-74
2023/03/13 09:37:46;;;;;;;0.20;0.20;;;;;;;;;;5082371;28;20365;-76
2023/03/13 09:40:16;;;;;;;0.20;0.20;;;;;;;;;;5075894;28;20168;-74
2023/03/13 09:42:44;;;;;;;0.20;0.20;;;;;;;;;;5091320;28;20418;-74
2023/03/13 09:45:21;;;;;;;0.50;0.50;;;;;;;;;;5088005;28;20115;-75
2023/03/13 09:47:51;;;;;;;0.20;0.20;;;;;;;;;;5090609;28;20036;-75
2023/03/13 09:50:19;;;;;;;0.20;0.20;;;;;;;;;;5077806;28;20506;-74
2023/03/13 09:52:46;;;;;;;0.28;0.28;;;;;;;;;;5081010;28;20110;-73
2023/03/13 09:55:16;;;;;;;0.30;0.30;;;;;;;;;;5081200;28;20055;-75
2023/03/13 09:57:55;;;;;;;0.20;0.20;;;;;;;;;;5081443;28;20348;-74
2023/03/13 10:00:23;;;;;;;1.48;0.75;;;;;;;;;;5082403;28;20032;-73
2023/03/13 10:02:55;;;;;;;0.30;0.30;;;;;;;;;;5071240;28;20393;-74
2023/03/13 10:05:25;;;;;;;0.73;0.50;;;;;;;;;;5084568;28;20364;-75
2023/03/13 10:07:55;;;;;;;0.30;0.30;;;;;;;;;;5100530;28;20032;-74
2023/03/13 10:10:27;;;;;;;0.22;0.22;;;;;;;;;;5075940;28;20032;-74
2023/03/13 10:12:56;;;;;;;0.20;0.20;;;;;;;;;;5070897;28;20029;-73
2023/03/13 10:15:40;;;;;;;0.50;0.50;;;;;;;;;;5052443;28;20510;-73
2023/03/13 10:18:12;;;;;;;0.20;0.20;;;;;;;;;;5068744;28;20052;-73
2023/03/13 10:20:38;;;;;;;0.20;0.20;;;;;;;;;;5070624;28;20032;-73
2023/03/13 10:23:06;;;;;;;0.25;0.25;;;;;;;;;;5069009;28;20511;-73
2023/03/13 10:25:32;;;;;;;0.20;0.20;;;;;;;;;;5070192;28;20048;-74
2023/03/13 10:27:57;;;;;;;0.30;0.30;;;;;;;;;;5052180;28;20031;-73
2023/03/13 10:30:24;;;;;;;1.48;1.05;;;;;;;;;;5069305;28;20033;-74
2023/03/13 10:32:52;;;;;;;3.97;3.60;;;;;;;;;;5070031;28;20029;-73
2023/03/13 10:35:22;;;;;;;2.10;0.85;;;;;;;;;;5070080;28;20031;-73
2023/03/13 10:37:47;;;;;;;0.38;0.38;;;;;;;;;;5070269;28;20032;-73
2023/03/13 10:40:21;;;;;;;0.40;0.40;;;;;;;;;;5070464;28;20065;-74
2023/03/13 10:42:47;;;;;;;0.20;0.20;;;;;;;;;;5068599;28;20119;-74
2023/03/13 10:45:15;;;;;;;0.30;0.30;;;;;;;;;;5068866;28;20103;-75
2023/03/13 10:47:40;;;;;;;4.38;0.57;;;;;;;;;;5068561;28;20081;-74
2023/03/13 10:50:06;;;;;;;0.28;0.28;;;;;;;;;;5070040;28;20032;-74
2023/03/13 10:52:41;;;;;;;2.00;1.38;;;;;;;;;;5068503;28;20075;-74
2023/03/13 10:55:12;;;;;;;0.30;0.30;;;;;;;;;;5068539;28;20035;-74
2023/03/13 10:57:38;;;;;;;0.30;0.30;;;;;;;;;;5068467;28;20020;-74
2023/03/13 11:00:23;;;;;;;0.20;0.20;;;;;;;;;;5068556;28;20039;-74
2023/03/13 11:02:49;;;;;;;0.20;0.20;;;;;;;;;;5072565;28;20033;-74
2023/03/13 11:05:30;;;;;;;1.65;0.43;;;;;;;;;;5051704;28;20464;-74
2023/03/13 11:07:55;;;;;;;0.38;0.38;;;;;;;;;;5068188;28;20384;-74
2023/03/13 11:10:31;;;;;;;1.05;0.20;;;;;;;;;;5069328;28;20039;-74
2023/03/13 11:12:57;;;;;;;1.95;1.38;;;;;;;;;;5070033;28;20024;-74
2023/03/13 11:15:34;;;;;;;2.58;1.10;;;;;;;;;;5069332;28;20388;-74
2023/03/13 11:18:11;;;;;;;0.30;0.30;;;;;;;;;;5068784;28;20028;-73
2023/03/13 11:20:42;;;;;;;0.40;0.38;;;;;;;;;;5068258;28;20119;-74
2023/03/13 11:23:26;;;;;;;6.70;2.08;;;;;;;;;;5069335;28;20036;-74
2023/03/13 11:25:51;;;;;;;0.70;0.43;;;;;;;;;;5068893;28;20055;-74
2023/03/13 11:28:17;;;;;;;1.05;0.70;;;;;;;;;;5068222;28;20036;-74
2023/03/13 11:30:42;;;;;;;0.47;0.47;;;;;;;;;;5069809;28;20032;-74
2023/03/13 11:33:23;;;;;;;0.30;0.30;;;;;;;;;;5069105;28;20115;-74
2023/03/13 11:35:51;;;;;;;0.20;0.20;;;;;;;;;;5069389;28;20032;-74
2023/03/13 11:38:36;;;;;;;0.47;0.43;;;;;;;;;;5068612;28;20372;-73
2023/03/13 11:41:07;;;;;;;9.32;1.02;;;;;;;;;;5067829;28;20388;-74
2023/03/13 11:43:39;;;;;;;3.53;2.78;;;;;;;;;;5067741;28;20028;-74
2023/03/13 11:46:08;;;;;;;1.58;0.73;;;;;;;;;;5068899;28;20049;-74
2023/03/13 11:48:39;;;;;;;0.30;0.30;;;;;;;;;;5069171;28;20025;-74
2023/03/13 11:51:12;;;;;;;0.20;0.20;;;;;;;;;;5069098;28;20029;-74
2023/03/13 11:53:38;;;;;;;0.60;0.60;;;;;;;;;;5067917;28;20074;-74
2023/03/13 11:56:15;;;;;;;0.20;0.20;;;;;;;;;;5069129;28;20067;-74
2023/03/13 11:58:49;;;;;;;0.50;0.50;;;;;;;;;;5069062;28;20032;-73
2023/03/13 12:01:16;;;;;;;0.30;0.30;;;;;;;;;;5067901;28;20043;-74
2023/03/13 12:04:00;;;;;;;0.20;0.20;;;;;;;;;;5069296;28;20085;-74
2023/03/13 12:06:30;;;;;;;0.40;0.40;;;;;;;;;;5068916;28;20075;-74
2023/03/13 12:09:15;;;;;;;0.28;0.28;;;;;;;;;;5069069;28;20020;-74
2023/03/13 12:11:48;;;;;;;0.20;0.20;;;;;;;;;;5071911;28;20115;-73
2023/03/13 12:14:46;;;;;;;0.35;0.35;;;;;;;;;;5067721;28;20086;-74
2023/03/13 12:17:15;;;;;;;0.22;0.22;;;;;;;;;;5078505;28;20143;-75
2023/03/13 12:19:45;;;;;;;0.20;0.20;;;;;;;;;;5069052;28;20380;-74
2023/03/13 12:22:34;;;;;;;0.50;0.50;;;;;;;;;;5068955;28;20048;-73
2023/03/13 12:25:11;;;;;;;0.40;0.30;;;;;;;;;;5050055;28;20045;-74
2023/03/13 12:27:40;;;;;;;0.20;0.20;;;;;;;;;;5068684;28;20044;-74
2023/03/13 12:30:25;;;;;;;0.25;0.25;;;;;;;;;;5069451;28;20021;-73
2023/03/13 12:33:04;;;;;;;15.00;4.40;;;;;;;;;;5067033;28;20044;-73
2023/03/13 12:35:33;;;;;;;0.38;0.38;;;;;;;;;;5067547;28;20043;-73
2023/03/13 12:38:14;;;;;;;0.73;0.47;;;;;;;;;;5067359;28;20024;-73
2023/03/13 12:40:58;;;;;;;1.17;0.82;;;;;;;;;;5067350;28;20033;-73
2023/03/13 12:43:35;;;;;;;0.38;0.38;;;;;;;;;;5050557;28;20032;-73
2023/03/13 12:46:16;;;;;;;0.20;0.20;;;;;;;;;;5071462;28;20043;-73
2023/03/13 12:48:54;;;;;;;0.22;0.22;;;;;;;;;;5071890;28;20524;-72
2023/03/13 12:51:43;;;;;;;4.13;1.42;;;;;;;;;;5072142;28;20036;-73
2023/03/13 12:54:11;;;;;;;4.65;1.48;;;;;;;;;;5072189;28;20472;-74
2023/03/13 12:56:43;;;;;;;0.40;0.40;;;;;;;;;;5071982;28;20039;-73
2023/03/13 12:59:11;;;;;;;2.00;0.57;;;;;;;;;;5071749;28;20017;-73
2023/03/13 13:01:48;;;;;;;0.30;0.30;;;;;;;;;;5071754;28;20021;-73
2023/03/13 13:04:16;;;;;;;0.20;0.20;;;;;;;;;;5072095;28;20085;-74
2023/03/13 13:07:05;;;;;;;0.60;0.57;;;;;;;;;;5070633;28;20036;-74
2023/03/13 13:09:40;;;;;;;0.30;0.30;;;;;;;;;;5074085;28;20530;-73
2023/03/13 13:12:26;;;;;;;1.05;0.75;;;;;;;;;;5071762;28;20392;-73
2023/03/13 13:14:51;;;;;;;0.77;0.60;;;;;;;;;;5071295;28;20044;-73
2023/03/13 13:17:20;;;;;;;1.45;1.35;;;;;;;;;;5071633;28;20464;-73
2023/03/13 13:19:46;;;;;;;8.02;1.83;;;;;;;;;;5071527;28;20416;-73
2023/03/13 13:22:32;;;;;;;0.30;0.30;;;;;;;;;;5082547;28;20062;-73
2023/03/13 13:24:58;;;;;;;0.20;0.20;;;;;;;;;;5091645;28;20044;-73
2023/03/13 13:27:26;;;;;;;1.38;1.33;;;;;;;;;;5081137;28;20392;-73
2023/03/13 13:29:53;;;;;;;0.20;0.20;;;;;;;;;;5091599;28;20053;-73
2023/03/13 13:32:27;;;;;;;1.33;1.33;;;;;;;;;;5088723;28;20035;-73
2023/03/13 13:35:08;;;;;;;0.20;0.20;;;;;;;;;;5090571;28;20047;-72
2023/03/13 13:37:33;;;;;;;0.20;0.20;;;;;;;;;;5090244;28;20028;-73
2023/03/13 13:40:14;;;;;;;2.75;0.57;;;;;;;;;;5090842;28;20184;-73
2023/03/13 13:42:50;;;;;;;0.90;0.43;;;;;;;;;;5091524;28;20028;-73
2023/03/13 13:45:15;;;;;;;0.30;0.30;;;;;;;;;;5091224;28;20028;-73
2023/03/13 13:47:44;;;;;;;0.20;0.20;;;;;;;;;;5091278;28;20032;-74
2023/03/13 13:50:26;;;;;;;0.50;0.50;;;;;;;;;;5091504;28;20480;-73
2023/03/13 13:52:52;;;;;;;0.20;0.20;;;;;;;;;;5091396;28;20375;-73
2023/03/13 13:55:20;;;;;;;0.20;0.20;;;;;;;;;;5090725;28;20020;-73
2023/03/13 13:57:48;;;;;;;21.23;0.77;;;;;;;;;;5091228;28;20063;-73
2023/03/13 14:00:23;;;;;;;0.20;0.20;;;;;;;;;;5091614;28;20154;-73
2023/03/13 14:02:55;;;;;;;0.20;0.20;;;;;;;;;;5090210;28;20032;-73
2023/03/13 14:05:20;;;;;;;0.22;0.22;;;;;;;;;;5090753;28;20024;-73
2023/03/13 14:07:49;;;;;;;0.20;0.20;;;;;;;;;;5091150;28;20089;-73
2023/03/13 14:10:17;;;;;;;0.20;0.20;;;;;;;;;;5091366;28;20157;-74
2023/03/13 14:12:50;;;;;;;0.40;0.40;;;;;;;;;;5091383;28;20030;-73
2023/03/13 14:15:20;;;;;;;0.65;0.50;;;;;;;;;;5089630;28;20426;-73
2023/03/13 14:17:53;;;;;;;0.20;0.20;;;;;;;;;;5089759;28;20024;-73
2023/03/13 14:20:21;;;;;;;0.20;0.20;;;;;;;;;;5091031;28;20043;-74
2023/03/13 14:22:47;;;;;;;0.88;0.88;;;;;;;;;;5090674;28;20039;-74
2023/03/13 14:25:13;;;;;;;0.20;0.20;;;;;;;;;;5090677;28;20108;-74
2023/03/13 14:27:42;;;;;;;0.20;0.20;;;;;;;;;;5089696;28;20051;-73
2023/03/13 14:30:09;;;;;;;0.70;0.70;;;;;;;;;;5090807;28;20028;-74
2023/03/13 14:32:34;;;;;;;0.20;0.20;;;;;;;;;;5089288;28;20032;-74
2023/03/13 14:35:00;;;;;;;0.45;0.45;;;;;;;;;;5091155;28;20035;-74
2023/03/13 14:37:36;;;;;;;0.20;0.20;;;;;;;;;;5090461;28;20475;-74
2023/03/13 14:40:08;;;;;;;0.30;0.30;;;;;;;;;;5090665;28;20080;-74
2023/03/13 14:42:37;;;;;;;0.20;0.20;;;;;;;;;;5090374;28;20360;-73
2023/03/13 14:45:02;;;;;;;;;;;;;;;;;;5090066;28;20060;-74
2023/03/13 14:47:31;;;;;;;0.30;0.30;;;;;;;;;;5088962;28;19962;-73
2023/03/13 14:49:58;;;;;;;4.10;1.15;;;;;;;;;;5087948;28;20406;-73
2023/03/13 14:52:24;;;;;;;0.20;0.20;;;;;;;;;;5087954;28;20032;-74
2023/03/13 14:54:52;;;;;;;0.30;0.30;;;;;;;;;;5090128;28;20031;-74
2023/03/13 14:57:20;;;;;;;0.28;0.28;;;;;;;;;;5088776;28;20012;-74
2023/03/13 14:59:46;;;;;;;2.30;2.15;;;;;;;;;;5090539;28;20028;-75
2023/03/13 15:02:17;;;;;;;0.28;0.28;;;;;;;;;;5090022;28;20030;-74